sensor_id;sensor_type;location;lat;lon;timestamp;P1;durP1;ratioP1;P2;durP2;ratioP2
80272;SDS011;69574;45.328;9.598;2023-04-23T00:01:49;14.43;;;4.00;;
80272;SDS011;69574;45.328;9.598;2023-04-23T00:04:16;10.93;;;4.60;;
80272;SDS011;69574;45.328;9.598;2023-04-23T00:06:43;10.77;;;4.75;;
80272;SDS011;69574;45.328;9.598;2023-04-23T00:09:10;13.52;;;4.57;;
80272;SDS011;69574;45.328;9.598;2023-04-23T00:11:40;10.85;;;4.47;;
80272;SDS011;69574;45.328;9.598;2023-04-23T00:14:05;11.23;;;4.00;;
80272;SDS011;69574;45.328;9.598;2023-04-23T00:16:31;10.48;;;4.00;;
80272;SDS011;69574;45.328;9.598;2023-04-23T00:18:57;12.80;;;4.70;;
80272;SDS011;69574;45.328;9.598;2023-04-23T00:21:22;11.65;;;4.40;;
80272;SDS011;69574;45.328;9.598;2023-04-23T00:23:48;9.60;;;4.32;;
80272;SDS011;69574;45.328;9.598;2023-04-23T00:26:13;8.63;;;3.85;;
80272;SDS011;69574;45.328;9.598;2023-04-23T00:28:40;9.88;;;4.03;;
80272;SDS011;69574;45.328;9.598;2023-04-23T00:31:06;10.02;;;4.47;;
80272;SDS011;69574;45.328;9.598;2023-04-23T00:33:31;11.15;;;4.22;;
80272;SDS011;69574;45.328;9.598;2023-04-23T00:35:57;12.77;;;3.95;;
80272;SDS011;69574;45.328;9.598;2023-04-23T00:38:22;10.38;;;4.60;;
80272;SDS011;69574;45.328;9.598;2023-04-23T00:40:50;13.48;;;4.68;;
80272;SDS011;69574;45.328;9.598;2023-04-23T00:43:16;8.50;;;4.18;;
80272;SDS011;69574;45.328;9.598;2023-04-23T00:45:43;8.25;;;4.05;;
80272;SDS011;69574;45.328;9.598;2023-04-23T00:48:08;10.18;;;4.05;;
80272;SDS011;69574;45.328;9.598;2023-04-23T00:50:35;9.35;;;4.13;;
80272;SDS011;69574;45.328;9.598;2023-04-23T00:53:01;9.43;;;4.30;;
80272;SDS011;69574;45.328;9.598;2023-04-23T00:55:27;8.38;;;4.15;;
80272;SDS011;69574;45.328;9.598;2023-04-23T00:57:52;8.00;;;3.60;;
80272;SDS011;69574;45.328;9.598;2023-04-23T01:00:19;11.80;;;4.25;;
80272;SDS011;69574;45.328;9.598;2023-04-23T01:02:46;7.85;;;3.72;;
80272;SDS011;69574;45.328;9.598;2023-04-23T01:05:12;11.15;;;4.45;;
80272;SDS011;69574;45.328;9.598;2023-04-23T01:07:38;8.73;;;3.72;;
80272;SDS011;69574;45.328;9.598;2023-04-23T01:10:04;8.48;;;4.35;;
80272;SDS011;69574;45.328;9.598;2023-04-23T01:12:30;10.57;;;3.90;;
80272;SDS011;69574;45.328;9.598;2023-04-23T01:14:55;9.88;;;4.30;;
80272;SDS011;69574;45.328;9.598;2023-04-23T01:17:21;10.20;;;4.30;;
80272;SDS011;69574;45.328;9.598;2023-04-23T01:19:48;10.32;;;4.03;;
80272;SDS011;69574;45.328;9.598;2023-04-23T01:22:15;8.57;;;4.35;;
80272;SDS011;69574;45.328;9.598;2023-04-23T01:24:41;8.00;;;4.00;;
80272;SDS011;69574;45.328;9.598;2023-04-23T01:27:06;10.13;;;4.30;;
80272;SDS011;69574;45.328;9.598;2023-04-23T01:29:32;7.72;;;3.65;;
80272;SDS011;69574;45.328;9.598;2023-04-23T01:31:58;9.05;;;4.28;;
80272;SDS011;69574;45.328;9.598;2023-04-23T01:34:24;10.38;;;4.35;;
80272;SDS011;69574;45.328;9.598;2023-04-23T01:36:50;10.15;;;4.50;;
80272;SDS011;69574;45.328;9.598;2023-04-23T01:41:43;11.02;;;4.00;;
80272;SDS011;69574;45.328;9.598;2023-04-23T01:44:09;9.85;;;4.53;;
80272;SDS011;69574;45.328;9.598;2023-04-23T01:46:35;9.13;;;3.83;;
80272;SDS011;69574;45.328;9.598;2023-04-23T01:49:01;12.15;;;4.47;;
80272;SDS011;69574;45.328;9.598;2023-04-23T01:51:26;7.82;;;4.18;;
80272;SDS011;69574;45.328;9.598;2023-04-23T01:53:52;8.10;;;4.07;;
80272;SDS011;69574;45.328;9.598;2023-04-23T01:56:18;8.00;;;3.80;;
80272;SDS011;69574;45.328;9.598;2023-04-23T01:58:46;12.02;;;4.80;;
80272;SDS011;69574;45.328;9.598;2023-04-23T02:01:12;11.13;;;4.25;;
80272;SDS011;69574;45.328;9.598;2023-04-23T02:03:37;13.05;;;4.55;;
80272;SDS011;69574;45.328;9.598;2023-04-23T02:06:03;9.32;;;4.45;;
80272;SDS011;69574;45.328;9.598;2023-04-23T02:08:29;9.93;;;4.25;;
80272;SDS011;69574;45.328;9.598;2023-04-23T02:10:54;11.27;;;4.15;;
80272;SDS011;69574;45.328;9.598;2023-04-23T02:13:20;10.45;;;4.10;;
80272;SDS011;69574;45.328;9.598;2023-04-23T02:15:47;8.98;;;4.30;;
80272;SDS011;69574;45.328;9.598;2023-04-23T02:18:13;9.82;;;4.80;;
80272;SDS011;69574;45.328;9.598;2023-04-23T02:20:38;9.35;;;4.43;;
80272;SDS011;69574;45.328;9.598;2023-04-23T02:23:05;11.60;;;4.45;;
80272;SDS011;69574;45.328;9.598;2023-04-23T02:25:31;8.32;;;4.15;;
80272;SDS011;69574;45.328;9.598;2023-04-23T02:27:57;10.70;;;4.50;;
80272;SDS011;69574;45.328;9.598;2023-04-23T02:30:24;7.93;;;4.40;;
80272;SDS011;69574;45.328;9.598;2023-04-23T02:32:51;7.65;;;4.20;;
80272;SDS011;69574;45.328;9.598;2023-04-23T02:35:16;11.23;;;4.50;;
80272;SDS011;69574;45.328;9.598;2023-04-23T02:37:42;10.15;;;4.80;;
80272;SDS011;69574;45.328;9.598;2023-04-23T02:40:08;7.25;;;4.22;;
80272;SDS011;69574;45.328;9.598;2023-04-23T02:42:34;8.65;;;4.18;;
80272;SDS011;69574;45.328;9.598;2023-04-23T02:44:59;8.95;;;4.30;;
80272;SDS011;69574;45.328;9.598;2023-04-23T02:47:25;8.57;;;4.25;;
80272;SDS011;69574;45.328;9.598;2023-04-23T02:49:52;8.07;;;4.38;;
80272;SDS011;69574;45.328;9.598;2023-04-23T02:52:17;14.80;;;4.45;;
80272;SDS011;69574;45.328;9.598;2023-04-23T02:54:43;12.05;;;5.13;;
80272;SDS011;69574;45.328;9.598;2023-04-23T02:57:09;9.32;;;4.32;;
80272;SDS011;69574;45.328;9.598;2023-04-23T02:59:34;8.02;;;4.72;;
80272;SDS011;69574;45.328;9.598;2023-04-23T03:02:00;8.80;;;4.22;;
80272;SDS011;69574;45.328;9.598;2023-04-23T03:04:25;8.57;;;4.25;;
80272;SDS011;69574;45.328;9.598;2023-04-23T03:06:53;9.02;;;4.28;;
80272;SDS011;69574;45.328;9.598;2023-04-23T03:09:18;9.57;;;5.07;;
80272;SDS011;69574;45.328;9.598;2023-04-23T03:11:44;8.57;;;4.38;;
80272;SDS011;69574;45.328;9.598;2023-04-23T03:14:09;9.05;;;4.43;;
80272;SDS011;69574;45.328;9.598;2023-04-23T03:16:35;10.38;;;4.82;;
80272;SDS011;69574;45.328;9.598;2023-04-23T03:19:01;8.73;;;4.53;;
80272;SDS011;69574;45.328;9.598;2023-04-23T03:21:26;8.90;;;4.07;;
80272;SDS011;69574;45.328;9.598;2023-04-23T03:23:53;6.90;;;4.00;;
80272;SDS011;69574;45.328;9.598;2023-04-23T03:26:19;9.77;;;4.78;;
80272;SDS011;69574;45.328;9.598;2023-04-23T03:28:45;10.68;;;4.68;;
80272;SDS011;69574;45.328;9.598;2023-04-23T03:31:10;8.82;;;4.22;;
80272;SDS011;69574;45.328;9.598;2023-04-23T03:33:36;9.32;;;4.53;;
80272;SDS011;69574;45.328;9.598;2023-04-23T03:36:01;9.85;;;4.50;;
80272;SDS011;69574;45.328;9.598;2023-04-23T03:38:27;8.85;;;5.00;;
80272;SDS011;69574;45.328;9.598;2023-04-23T03:40:54;9.18;;;4.60;;
80272;SDS011;69574;45.328;9.598;2023-04-23T03:43:20;11.10;;;5.20;;
80272;SDS011;69574;45.328;9.598;2023-04-23T03:45:45;7.22;;;4.50;;
80272;SDS011;69574;45.328;9.598;2023-04-23T03:48:11;9.00;;;4.82;;
80272;SDS011;69574;45.328;9.598;2023-04-23T03:50:36;7.63;;;4.22;;
80272;SDS011;69574;45.328;9.598;2023-04-23T03:53:04;8.35;;;4.28;;
80272;SDS011;69574;45.328;9.598;2023-04-23T03:55:30;10.18;;;4.70;;
80272;SDS011;69574;45.328;9.598;2023-04-23T03:57:57;8.65;;;4.80;;
80272;SDS011;69574;45.328;9.598;2023-04-23T04:00:23;8.43;;;4.65;;
80272;SDS011;69574;45.328;9.598;2023-04-23T04:02:49;8.50;;;5.10;;
80272;SDS011;69574;45.328;9.598;2023-04-23T04:05:14;10.48;;;5.07;;
80272;SDS011;69574;45.328;9.598;2023-04-23T04:07:40;8.07;;;4.78;;
80272;SDS011;69574;45.328;9.598;2023-04-23T04:10:06;8.32;;;4.57;;
80272;SDS011;69574;45.328;9.598;2023-04-23T04:12:32;8.43;;;4.88;;
80272;SDS011;69574;45.328;9.598;2023-04-23T04:14:59;8.63;;;4.90;;
80272;SDS011;69574;45.328;9.598;2023-04-23T04:17:24;8.07;;;5.03;;
80272;SDS011;69574;45.328;9.598;2023-04-23T04:19:50;8.98;;;4.65;;
80272;SDS011;69574;45.328;9.598;2023-04-23T04:22:16;8.25;;;4.90;;
80272;SDS011;69574;45.328;9.598;2023-04-23T04:24:42;7.18;;;4.45;;
80272;SDS011;69574;45.328;9.598;2023-04-23T04:27:07;7.88;;;4.75;;
80272;SDS011;69574;45.328;9.598;2023-04-23T04:29:33;7.38;;;4.70;;
80272;SDS011;69574;45.328;9.598;2023-04-23T04:32:00;7.60;;;4.80;;
80272;SDS011;69574;45.328;9.598;2023-04-23T04:34:26;7.80;;;4.70;;
80272;SDS011;69574;45.328;9.598;2023-04-23T04:36:52;8.65;;;5.22;;
80272;SDS011;69574;45.328;9.598;2023-04-23T04:39:18;6.75;;;4.38;;
80272;SDS011;69574;45.328;9.598;2023-04-23T04:41:44;9.32;;;5.03;;
80272;SDS011;69574;45.328;9.598;2023-04-23T04:44:09;8.55;;;5.18;;
80272;SDS011;69574;45.328;9.598;2023-04-23T04:46:35;7.93;;;4.90;;
80272;SDS011;69574;45.328;9.598;2023-04-23T04:49:07;8.75;;;4.82;;
80272;SDS011;69574;45.328;9.598;2023-04-23T04:51:33;7.38;;;4.57;;
80272;SDS011;69574;45.328;9.598;2023-04-23T04:53:58;7.95;;;4.68;;
80272;SDS011;69574;45.328;9.598;2023-04-23T04:56:24;7.95;;;4.78;;
80272;SDS011;69574;45.328;9.598;2023-04-23T04:58:50;10.00;;;5.05;;
80272;SDS011;69574;45.328;9.598;2023-04-23T05:01:15;9.00;;;5.15;;
80272;SDS011;69574;45.328;9.598;2023-04-23T05:03:42;8.00;;;4.60;;
80272;SDS011;69574;45.328;9.598;2023-04-23T05:06:09;10.07;;;5.05;;
80272;SDS011;69574;45.328;9.598;2023-04-23T05:08:35;9.30;;;5.07;;
80272;SDS011;69574;45.328;9.598;2023-04-23T05:11:00;9.55;;;4.85;;
80272;SDS011;69574;45.328;9.598;2023-04-23T05:13:27;6.70;;;4.18;;
80272;SDS011;69574;45.328;9.598;2023-04-23T05:15:53;8.98;;;4.90;;
80272;SDS011;69574;45.328;9.598;2023-04-23T05:18:19;8.63;;;5.03;;
80272;SDS011;69574;45.328;9.598;2023-04-23T05:20:44;8.77;;;4.80;;
80272;SDS011;69574;45.328;9.598;2023-04-23T05:23:11;10.85;;;5.22;;
80272;SDS011;69574;45.328;9.598;2023-04-23T05:25:37;10.13;;;4.85;;
80272;SDS011;69574;45.328;9.598;2023-04-23T05:28:02;9.25;;;5.00;;
80272;SDS011;69574;45.328;9.598;2023-04-23T05:30:28;7.75;;;4.65;;
80272;SDS011;69574;45.328;9.598;2023-04-23T05:32:54;8.20;;;4.88;;
80272;SDS011;69574;45.328;9.598;2023-04-23T05:35:20;7.90;;;4.50;;
80272;SDS011;69574;45.328;9.598;2023-04-23T05:37:45;10.55;;;4.68;;
80272;SDS011;69574;45.328;9.598;2023-04-23T05:40:12;7.60;;;4.20;;
80272;SDS011;69574;45.328;9.598;2023-04-23T05:42:38;8.15;;;4.43;;
80272;SDS011;69574;45.328;9.598;2023-04-23T05:45:04;7.32;;;4.25;;
80272;SDS011;69574;45.328;9.598;2023-04-23T05:47:29;8.45;;;4.65;;
80272;SDS011;69574;45.328;9.598;2023-04-23T05:49:55;7.60;;;4.38;;
80272;SDS011;69574;45.328;9.598;2023-04-23T05:52:24;7.45;;;4.88;;
80272;SDS011;69574;45.328;9.598;2023-04-23T05:54:49;8.77;;;4.88;;
80272;SDS011;69574;45.328;9.598;2023-04-23T05:57:17;8.90;;;5.80;;
80272;SDS011;69574;45.328;9.598;2023-04-23T05:59:42;9.25;;;5.72;;
80272;SDS011;69574;45.328;9.598;2023-04-23T06:02:08;10.00;;;5.93;;
80272;SDS011;69574;45.328;9.598;2023-04-23T06:07:00;9.55;;;5.57;;
80272;SDS011;69574;45.328;9.598;2023-04-23T06:09:25;11.45;;;6.38;;
80272;SDS011;69574;45.328;9.598;2023-04-23T06:11:51;9.73;;;6.07;;
80272;SDS011;69574;45.328;9.598;2023-04-23T06:14:18;9.57;;;6.22;;
80272;SDS011;69574;45.328;9.598;2023-04-23T06:16:43;10.65;;;6.60;;
80272;SDS011;69574;45.328;9.598;2023-04-23T06:19:09;9.70;;;6.65;;
80272;SDS011;69574;45.328;9.598;2023-04-23T06:21:35;12.25;;;7.43;;
80272;SDS011;69574;45.328;9.598;2023-04-23T06:24:01;11.05;;;6.88;;
80272;SDS011;69574;45.328;9.598;2023-04-23T06:26:27;13.70;;;8.25;;
80272;SDS011;69574;45.328;9.598;2023-04-23T06:28:52;14.85;;;8.45;;
80272;SDS011;69574;45.328;9.598;2023-04-23T06:31:19;16.02;;;8.93;;
80272;SDS011;69574;45.328;9.598;2023-04-23T06:33:45;17.80;;;8.90;;
80272;SDS011;69574;45.328;9.598;2023-04-23T06:36:10;14.73;;;9.00;;
80272;SDS011;69574;45.328;9.598;2023-04-23T06:38:36;14.63;;;9.15;;
80272;SDS011;69574;45.328;9.598;2023-04-23T06:41:01;16.48;;;8.77;;
80272;SDS011;69574;45.328;9.598;2023-04-23T06:43:27;15.85;;;9.30;;
80272;SDS011;69574;45.328;9.598;2023-04-23T06:45:52;17.05;;;9.60;;
80272;SDS011;69574;45.328;9.598;2023-04-23T06:48:19;17.60;;;9.43;;
80272;SDS011;69574;45.328;9.598;2023-04-23T06:50:46;14.75;;;9.25;;
80272;SDS011;69574;45.328;9.598;2023-04-23T06:53:12;12.88;;;9.10;;
80272;SDS011;69574;45.328;9.598;2023-04-23T06:55:37;13.90;;;9.88;;
80272;SDS011;69574;45.328;9.598;2023-04-23T06:58:03;16.48;;;10.35;;
80272;SDS011;69574;45.328;9.598;2023-04-23T07:00:31;15.23;;;10.20;;
80272;SDS011;69574;45.328;9.598;2023-04-23T07:02:56;14.23;;;9.98;;
80272;SDS011;69574;45.328;9.598;2023-04-23T07:05:23;16.65;;;10.45;;
80272;SDS011;69574;45.328;9.598;2023-04-23T07:07:49;15.55;;;10.60;;
80272;SDS011;69574;45.328;9.598;2023-04-23T07:10:15;15.57;;;10.55;;
80272;SDS011;69574;45.328;9.598;2023-04-23T07:12:40;13.48;;;9.82;;
80272;SDS011;69574;45.328;9.598;2023-04-23T07:15:06;14.88;;;9.23;;
80272;SDS011;69574;45.328;9.598;2023-04-23T07:17:32;15.75;;;9.98;;
80272;SDS011;69574;45.328;9.598;2023-04-23T07:19:58;15.93;;;10.55;;
80272;SDS011;69574;45.328;9.598;2023-04-23T07:22:25;16.13;;;10.95;;
80272;SDS011;69574;45.328;9.598;2023-04-23T07:24:51;14.00;;;10.68;;
80272;SDS011;69574;45.328;9.598;2023-04-23T07:27:16;16.98;;;11.32;;
80272;SDS011;69574;45.328;9.598;2023-04-23T07:29:42;14.52;;;10.23;;
80272;SDS011;69574;45.328;9.598;2023-04-23T07:32:08;17.00;;;10.82;;
80272;SDS011;69574;45.328;9.598;2023-04-23T07:34:33;16.33;;;10.75;;
80272;SDS011;69574;45.328;9.598;2023-04-23T07:37:00;15.10;;;10.25;;
80272;SDS011;69574;45.328;9.598;2023-04-23T07:39:27;17.42;;;11.15;;
80272;SDS011;69574;45.328;9.598;2023-04-23T07:41:53;15.43;;;10.27;;
80272;SDS011;69574;45.328;9.598;2023-04-23T07:44:19;15.43;;;10.63;;
80272;SDS011;69574;45.328;9.598;2023-04-23T07:46:44;16.45;;;10.85;;
80272;SDS011;69574;45.328;9.598;2023-04-23T07:49:10;13.63;;;9.98;;
80272;SDS011;69574;45.328;9.598;2023-04-23T07:51:36;18.70;;;11.20;;
80272;SDS011;69574;45.328;9.598;2023-04-23T07:54:01;15.25;;;9.90;;
80272;SDS011;69574;45.328;9.598;2023-04-23T07:56:28;16.77;;;9.95;;
80272;SDS011;69574;45.328;9.598;2023-04-23T07:58:56;13.23;;;10.20;;
80272;SDS011;69574;45.328;9.598;2023-04-23T08:01:22;13.35;;;9.43;;
80272;SDS011;69574;45.328;9.598;2023-04-23T08:03:48;12.38;;;9.27;;
80272;SDS011;69574;45.328;9.598;2023-04-23T08:06:13;14.48;;;9.82;;
80272;SDS011;69574;45.328;9.598;2023-04-23T08:08:39;14.68;;;9.43;;
80272;SDS011;69574;45.328;9.598;2023-04-23T08:11:04;17.77;;;9.50;;
80272;SDS011;69574;45.328;9.598;2023-04-23T08:13:32;16.02;;;9.10;;
80272;SDS011;69574;45.328;9.598;2023-04-23T08:15:57;13.38;;;8.88;;
80272;SDS011;69574;45.328;9.598;2023-04-23T08:18:23;12.32;;;8.93;;
80272;SDS011;69574;45.328;9.598;2023-04-23T08:20:48;15.45;;;8.80;;
80272;SDS011;69574;45.328;9.598;2023-04-23T08:23:14;15.23;;;10.30;;
80272;SDS011;69574;45.328;9.598;2023-04-23T08:25:40;15.68;;;9.30;;
80272;SDS011;69574;45.328;9.598;2023-04-23T08:28:06;15.27;;;9.35;;
80272;SDS011;69574;45.328;9.598;2023-04-23T08:30:33;11.32;;;8.90;;
80272;SDS011;69574;45.328;9.598;2023-04-23T08:32:58;15.98;;;9.20;;
80272;SDS011;69574;45.328;9.598;2023-04-23T08:35:24;12.95;;;8.98;;
80272;SDS011;69574;45.328;9.598;2023-04-23T08:37:49;13.18;;;8.85;;
80272;SDS011;69574;45.328;9.598;2023-04-23T08:40:15;13.93;;;8.60;;
80272;SDS011;69574;45.328;9.598;2023-04-23T08:42:41;11.82;;;8.55;;
80272;SDS011;69574;45.328;9.598;2023-04-23T08:45:10;10.55;;;8.18;;
80272;SDS011;69574;45.328;9.598;2023-04-23T08:47:37;13.15;;;7.97;;
80272;SDS011;69574;45.328;9.598;2023-04-23T08:50:07;11.98;;;8.15;;
80272;SDS011;69574;45.328;9.598;2023-04-23T08:52:33;12.00;;;7.90;;
80272;SDS011;69574;45.328;9.598;2023-04-23T08:55:03;14.25;;;8.40;;
80272;SDS011;69574;45.328;9.598;2023-04-23T08:57:29;11.00;;;8.38;;
80272;SDS011;69574;45.328;9.598;2023-04-23T08:59:54;11.82;;;7.68;;
80272;SDS011;69574;45.328;9.598;2023-04-23T09:02:21;13.35;;;8.30;;
80272;SDS011;69574;45.328;9.598;2023-04-23T09:04:48;11.55;;;8.10;;
80272;SDS011;69574;45.328;9.598;2023-04-23T09:07:14;12.50;;;8.48;;
80272;SDS011;69574;45.328;9.598;2023-04-23T09:09:40;11.45;;;7.38;;
80272;SDS011;69574;45.328;9.598;2023-04-23T09:12:06;11.32;;;7.57;;
80272;SDS011;69574;45.328;9.598;2023-04-23T09:14:32;12.85;;;7.93;;
80272;SDS011;69574;45.328;9.598;2023-04-23T09:16:57;10.48;;;7.55;;
80272;SDS011;69574;45.328;9.598;2023-04-23T09:19:24;10.77;;;7.90;;
80272;SDS011;69574;45.328;9.598;2023-04-23T09:21:53;10.85;;;8.00;;
80272;SDS011;69574;45.328;9.598;2023-04-23T09:24:20;10.45;;;7.57;;
80272;SDS011;69574;45.328;9.598;2023-04-23T09:26:47;10.43;;;8.02;;
80272;SDS011;69574;45.328;9.598;2023-04-23T09:29:13;10.15;;;7.72;;
80272;SDS011;69574;45.328;9.598;2023-04-23T09:31:41;11.57;;;7.95;;
80272;SDS011;69574;45.328;9.598;2023-04-23T09:34:07;10.40;;;7.25;;
80272;SDS011;69574;45.328;9.598;2023-04-23T09:36:33;10.80;;;7.65;;
80272;SDS011;69574;45.328;9.598;2023-04-23T09:39:01;11.77;;;7.78;;
80272;SDS011;69574;45.328;9.598;2023-04-23T09:41:27;10.50;;;7.47;;
80272;SDS011;69574;45.328;9.598;2023-04-23T09:43:53;10.25;;;6.90;;
80272;SDS011;69574;45.328;9.598;2023-04-23T09:46:31;10.23;;;7.20;;
80272;SDS011;69574;45.328;9.598;2023-04-23T09:48:56;10.90;;;7.55;;
80272;SDS011;69574;45.328;9.598;2023-04-23T09:51:23;11.35;;;6.90;;
80272;SDS011;69574;45.328;9.598;2023-04-23T09:53:49;10.35;;;7.07;;
80272;SDS011;69574;45.328;9.598;2023-04-23T09:56:18;10.45;;;7.40;;
80272;SDS011;69574;45.328;9.598;2023-04-23T09:58:44;11.90;;;7.05;;
80272;SDS011;69574;45.328;9.598;2023-04-23T10:01:09;11.77;;;6.70;;
80272;SDS011;69574;45.328;9.598;2023-04-23T10:03:35;10.23;;;7.18;;
80272;SDS011;69574;45.328;9.598;2023-04-23T10:06:00;9.15;;;6.63;;
80272;SDS011;69574;45.328;9.598;2023-04-23T10:08:26;11.90;;;7.38;;
80272;SDS011;69574;45.328;9.598;2023-04-23T10:10:52;10.13;;;7.35;;
80272;SDS011;69574;45.328;9.598;2023-04-23T10:13:19;10.55;;;6.97;;
80272;SDS011;69574;45.328;9.598;2023-04-23T10:15:45;10.82;;;7.22;;
80272;SDS011;69574;45.328;9.598;2023-04-23T10:18:11;11.77;;;6.47;;
80272;SDS011;69574;45.328;9.598;2023-04-23T10:20:38;9.02;;;6.68;;
80272;SDS011;69574;45.328;9.598;2023-04-23T10:23:04;10.00;;;6.90;;
80272;SDS011;69574;45.328;9.598;2023-04-23T10:25:30;8.40;;;5.95;;
80272;SDS011;69574;45.328;9.598;2023-04-23T10:27:55;9.25;;;6.20;;
80272;SDS011;69574;45.328;9.598;2023-04-23T10:30:24;9.20;;;6.60;;
80272;SDS011;69574;45.328;9.598;2023-04-23T10:32:49;9.07;;;6.28;;
80272;SDS011;69574;45.328;9.598;2023-04-23T10:35:15;9.32;;;6.65;;
80272;SDS011;69574;45.328;9.598;2023-04-23T10:37:41;9.60;;;6.47;;
80272;SDS011;69574;45.328;9.598;2023-04-23T10:40:09;8.65;;;6.50;;
80272;SDS011;69574;45.328;9.598;2023-04-23T10:42:37;9.15;;;6.63;;
80272;SDS011;69574;45.328;9.598;2023-04-23T10:45:10;8.80;;;6.30;;
80272;SDS011;69574;45.328;9.598;2023-04-23T10:52:56;9.35;;;6.07;;
80272;SDS011;69574;45.328;9.598;2023-04-23T10:55:22;10.80;;;7.43;;
80272;SDS011;69574;45.328;9.598;2023-04-23T10:57:57;9.30;;;6.10;;
80272;SDS011;69574;45.328;9.598;2023-04-23T11:00:24;7.72;;;6.03;;
80272;SDS011;69574;45.328;9.598;2023-04-23T11:02:50;8.27;;;5.93;;
80272;SDS011;69574;45.328;9.598;2023-04-23T11:05:17;8.85;;;6.38;;
80272;SDS011;69574;45.328;9.598;2023-04-23T11:07:44;8.38;;;5.97;;
80272;SDS011;69574;45.328;9.598;2023-04-23T11:10:27;8.73;;;5.85;;
80272;SDS011;69574;45.328;9.598;2023-04-23T11:12:54;9.13;;;5.93;;
80272;SDS011;69574;45.328;9.598;2023-04-23T11:15:20;9.23;;;6.35;;
80272;SDS011;69574;45.328;9.598;2023-04-23T11:17:58;8.55;;;6.45;;
80272;SDS011;69574;45.328;9.598;2023-04-23T11:20:23;7.70;;;5.93;;
80272;SDS011;69574;45.328;9.598;2023-04-23T11:22:49;7.65;;;5.82;;
80272;SDS011;69574;45.328;9.598;2023-04-23T11:25:21;9.48;;;6.63;;
80272;SDS011;69574;45.328;9.598;2023-04-23T11:27:48;8.68;;;6.07;;
80272;SDS011;69574;45.328;9.598;2023-04-23T11:30:15;8.10;;;5.65;;
80272;SDS011;69574;45.328;9.598;2023-04-23T11:32:43;8.35;;;5.65;;
80272;SDS011;69574;45.328;9.598;2023-04-23T11:35:08;8.50;;;5.82;;
80272;SDS011;69574;45.328;9.598;2023-04-23T11:37:37;7.55;;;5.40;;
80272;SDS011;69574;45.328;9.598;2023-04-23T11:40:04;8.73;;;5.93;;
80272;SDS011;69574;45.328;9.598;2023-04-23T11:42:30;7.78;;;6.45;;
80272;SDS011;69574;45.328;9.598;2023-04-23T11:44:57;7.88;;;5.43;;
80272;SDS011;69574;45.328;9.598;2023-04-23T11:47:23;8.80;;;6.15;;
80272;SDS011;69574;45.328;9.598;2023-04-23T11:49:50;8.05;;;5.63;;
80272;SDS011;69574;45.328;9.598;2023-04-23T11:52:15;8.18;;;6.15;;
80272;SDS011;69574;45.328;9.598;2023-04-23T11:54:41;9.20;;;6.28;;
80272;SDS011;69574;45.328;9.598;2023-04-23T11:57:07;8.43;;;5.82;;
80272;SDS011;69574;45.328;9.598;2023-04-23T11:59:32;7.90;;;5.90;;
80272;SDS011;69574;45.328;9.598;2023-04-23T12:01:59;8.27;;;5.68;;
80272;SDS011;69574;45.328;9.598;2023-04-23T12:04:25;7.90;;;5.45;;
80272;SDS011;69574;45.328;9.598;2023-04-23T12:06:53;8.20;;;5.65;;
80272;SDS011;69574;45.328;9.598;2023-04-23T12:09:19;9.45;;;5.70;;
80272;SDS011;69574;45.328;9.598;2023-04-23T12:11:45;8.27;;;6.10;;
80272;SDS011;69574;45.328;9.598;2023-04-23T12:14:11;7.82;;;5.35;;
80272;SDS011;69574;45.328;9.598;2023-04-23T12:16:38;7.60;;;5.43;;
80272;SDS011;69574;45.328;9.598;2023-04-23T12:19:07;8.68;;;5.65;;
80272;SDS011;69574;45.328;9.598;2023-04-23T12:21:33;8.00;;;5.05;;
80272;SDS011;69574;45.328;9.598;2023-04-23T12:23:59;6.38;;;4.88;;
80272;SDS011;69574;45.328;9.598;2023-04-23T12:26:27;8.18;;;5.18;;
80272;SDS011;69574;45.328;9.598;2023-04-23T12:28:54;7.47;;;5.25;;
80272;SDS011;69574;45.328;9.598;2023-04-23T12:31:20;7.65;;;5.35;;
80272;SDS011;69574;45.328;9.598;2023-04-23T12:33:46;6.30;;;4.85;;
80272;SDS011;69574;45.328;9.598;2023-04-23T12:36:19;8.00;;;5.70;;
80272;SDS011;69574;45.328;9.598;2023-04-23T12:38:44;7.30;;;5.25;;
80272;SDS011;69574;45.328;9.598;2023-04-23T12:41:10;8.40;;;5.97;;
80272;SDS011;69574;45.328;9.598;2023-04-23T12:43:35;7.35;;;5.28;;
80272;SDS011;69574;45.328;9.598;2023-04-23T12:46:01;7.68;;;5.38;;
80272;SDS011;69574;45.328;9.598;2023-04-23T12:48:26;8.43;;;5.50;;
80272;SDS011;69574;45.328;9.598;2023-04-23T12:50:52;8.00;;;5.68;;
80272;SDS011;69574;45.328;9.598;2023-04-23T12:53:19;7.20;;;4.93;;
80272;SDS011;69574;45.328;9.598;2023-04-23T12:55:44;6.82;;;5.28;;
80272;SDS011;69574;45.328;9.598;2023-04-23T12:58:10;7.43;;;5.20;;
80272;SDS011;69574;45.328;9.598;2023-04-23T13:00:35;7.95;;;4.88;;
80272;SDS011;69574;45.328;9.598;2023-04-23T13:03:01;7.55;;;5.28;;
80272;SDS011;69574;45.328;9.598;2023-04-23T13:05:26;7.88;;;5.18;;
80272;SDS011;69574;45.328;9.598;2023-04-23T13:07:52;6.05;;;4.43;;
80272;SDS011;69574;45.328;9.598;2023-04-23T13:10:19;7.75;;;5.13;;
80272;SDS011;69574;45.328;9.598;2023-04-23T13:12:44;7.28;;;5.13;;
80272;SDS011;69574;45.328;9.598;2023-04-23T13:15:10;6.53;;;4.88;;
80272;SDS011;69574;45.328;9.598;2023-04-23T13:20:02;6.37;;;4.70;;
80272;SDS011;69574;45.328;9.598;2023-04-23T13:22:29;6.45;;;4.70;;
80272;SDS011;69574;45.328;9.598;2023-04-23T13:24:55;7.50;;;5.18;;
80272;SDS011;69574;45.328;9.598;2023-04-23T13:27:23;6.65;;;4.80;;
80272;SDS011;69574;45.328;9.598;2023-04-23T13:29:48;6.75;;;4.63;;
80272;SDS011;69574;45.328;9.598;2023-04-23T13:32:14;8.00;;;5.22;;
80272;SDS011;69574;45.328;9.598;2023-04-23T13:34:40;7.38;;;5.03;;
80272;SDS011;69574;45.328;9.598;2023-04-23T13:37:06;7.60;;;5.15;;
80272;SDS011;69574;45.328;9.598;2023-04-23T13:39:33;7.32;;;5.28;;
80272;SDS011;69574;45.328;9.598;2023-04-23T13:41:59;7.28;;;4.88;;
80272;SDS011;69574;45.328;9.598;2023-04-23T13:44:27;7.07;;;4.63;;
80272;SDS011;69574;45.328;9.598;2023-04-23T13:46:53;7.72;;;5.40;;
80272;SDS011;69574;45.328;9.598;2023-04-23T13:49:18;6.50;;;4.95;;
80272;SDS011;69574;45.328;9.598;2023-04-23T13:51:44;7.00;;;5.30;;
80272;SDS011;69574;45.328;9.598;2023-04-23T13:54:09;6.95;;;4.95;;
80272;SDS011;69574;45.328;9.598;2023-04-23T13:56:35;6.80;;;5.03;;
80272;SDS011;69574;45.328;9.598;2023-04-23T13:59:01;5.72;;;4.75;;
80272;SDS011;69574;45.328;9.598;2023-04-23T14:01:29;7.25;;;5.10;;
80272;SDS011;69574;45.328;9.598;2023-04-23T14:03:55;6.35;;;4.72;;
80272;SDS011;69574;45.328;9.598;2023-04-23T14:06:23;6.55;;;5.13;;
80272;SDS011;69574;45.328;9.598;2023-04-23T14:08:49;7.00;;;5.38;;
80272;SDS011;69574;45.328;9.598;2023-04-23T14:11:15;6.47;;;5.07;;
80272;SDS011;69574;45.328;9.598;2023-04-23T14:13:40;6.40;;;4.95;;
80272;SDS011;69574;45.328;9.598;2023-04-23T14:16:06;6.00;;;4.63;;
80272;SDS011;69574;45.328;9.598;2023-04-23T14:18:33;6.70;;;4.18;;
80272;SDS011;69574;45.328;9.598;2023-04-23T14:20:59;6.95;;;4.47;;
80272;SDS011;69574;45.328;9.598;2023-04-23T14:26:08;6.45;;;4.95;;
80272;SDS011;69574;45.328;9.598;2023-04-23T14:28:38;6.78;;;4.88;;
80272;SDS011;69574;45.328;9.598;2023-04-23T14:31:04;6.50;;;4.60;;
80272;SDS011;69574;45.328;9.598;2023-04-23T14:33:30;5.97;;;4.47;;
80272;SDS011;69574;45.328;9.598;2023-04-23T14:35:57;6.35;;;4.85;;
80272;SDS011;69574;45.328;9.598;2023-04-23T14:38:22;6.72;;;4.65;;
80272;SDS011;69574;45.328;9.598;2023-04-23T14:40:50;6.68;;;4.80;;
80272;SDS011;69574;45.328;9.598;2023-04-23T14:43:16;6.43;;;4.65;;
80272;SDS011;69574;45.328;9.598;2023-04-23T14:45:41;6.32;;;4.40;;
80272;SDS011;69574;45.328;9.598;2023-04-23T14:48:07;6.90;;;4.82;;
80272;SDS011;69574;45.328;9.598;2023-04-23T14:50:33;6.93;;;4.65;;